Terminal Aerodrome Forecast
Issued by NWS

Home | Current Version | Previous Version | Text Only | Print | Product List | Glossary Off
Versions: 1 2 3 4 5 6 7 8 9 10 11 12 13 14 15 16 17

526
FTUS43 KMPX 262339
TAFRWF
TAF
KRWF 262339Z 2700/2724 20007KT P6SM BKN150
     FM271200 17004KT P6SM VCSH SCT040 OVC100
     FM271900 35005KT 5SM -TSRA BR SCT025 OVC040CB=

USA.gov is the U.S. government's official web portal to all federal, state and local government web resources and services.